createdAt,value
2018-12-30T00:01:10.208Z,8.30
2018-12-30T00:03:39.056Z,8.30
2018-12-30T00:06:08.680Z,8.30
2018-12-30T00:08:37.740Z,8.30
2018-12-30T00:11:06.608Z,8.00
2018-12-30T00:13:35.769Z,8.00
2018-12-30T00:16:05.161Z,7.90
2018-12-30T00:18:34.025Z,7.80
2018-12-30T00:21:08.932Z,7.70
2018-12-30T00:23:33.805Z,7.60
2018-12-30T00:26:02.685Z,7.50
2018-12-30T00:28:31.953Z,7.40
2018-12-30T00:31:00.830Z,7.40
2018-12-30T00:33:30.166Z,7.30
2018-12-30T00:35:59.440Z,7.30
2018-12-30T00:38:28.325Z,7.30
2018-12-30T00:40:57.191Z,7.20
2018-12-30T00:43:26.366Z,7.20
2018-12-30T00:45:55.235Z,7.20
2018-12-30T00:48:24.204Z,7.20
2018-12-30T00:50:54.648Z,7.10
2018-12-30T00:53:23.526Z,7.10
2018-12-30T00:55:52.389Z,7.10
2018-12-30T00:58:21.795Z,7.10
2018-12-30T01:00:51.014Z,7.10
2018-12-30T01:03:19.916Z,7.10
2018-12-30T01:05:49.163Z,7.00
2018-12-30T01:08:18.464Z,7.00
2018-12-30T01:10:47.325Z,7.00
2018-12-30T01:13:16.232Z,7.10
2018-12-30T01:15:45.086Z,7.00
2018-12-30T01:18:13.953Z,7.00
2018-12-30T01:20:42.861Z,7.10
2018-12-30T01:23:12.062Z,7.00
2018-12-30T01:25:41.020Z,7.00
2018-12-30T01:28:10.495Z,7.00
2018-12-30T01:30:39.453Z,7.10
2018-12-30T01:33:08.322Z,7.00
2018-12-30T01:35:37.576Z,7.00
2018-12-30T01:38:06.437Z,6.90
2018-12-30T01:40:35.316Z,6.90
2018-12-30T01:43:04.550Z,6.90
2018-12-30T01:45:33.404Z,6.90
2018-12-30T01:48:02.261Z,6.90
2018-12-30T01:50:31.419Z,6.90
2018-12-30T01:53:00.277Z,6.90
2018-12-30T01:55:29.131Z,7.00
2018-12-30T01:58:00.809Z,6.90
2018-12-30T02:00:29.677Z,6.90
2018-12-30T02:02:58.542Z,7.00
2018-12-30T02:05:27.436Z,7.00
2018-12-30T02:07:56.293Z,7.00
2018-12-30T02:10:25.419Z,6.90
2018-12-30T02:12:54.320Z,6.90
2018-12-30T02:15:23.372Z,6.90
2018-12-30T02:17:52.232Z,6.90
2018-12-30T02:20:21.160Z,6.90
2018-12-30T02:22:50.014Z,6.90
2018-12-30T02:25:18.868Z,6.90
2018-12-30T02:27:48.105Z,6.80
2018-12-30T02:30:17.276Z,6.90
2018-12-30T02:32:46.136Z,6.90
2018-12-30T02:35:15.053Z,6.80
2018-12-30T02:37:43.920Z,6.80
2018-12-30T02:40:12.996Z,6.80
2018-12-30T02:42:42.464Z,6.70
2018-12-30T02:45:11.328Z,6.80
2018-12-30T02:47:40.200Z,6.80
2018-12-30T02:50:09.124Z,6.80
2018-12-30T02:52:38.008Z,6.80
2018-12-30T02:55:08.348Z,6.80
2018-12-30T02:57:37.864Z,6.90
2018-12-30T03:00:08.442Z,6.90
2018-12-30T03:02:37.295Z,6.90
2018-12-30T03:05:06.207Z,6.80
2018-12-30T03:07:35.577Z,6.80
2018-12-30T03:10:04.759Z,6.80
2018-12-30T03:12:34.110Z,6.70
2018-12-30T03:15:02.969Z,6.80
2018-12-30T03:17:31.827Z,6.80
2018-12-30T03:20:00.848Z,6.80
2018-12-30T03:22:30.044Z,6.80
2018-12-30T03:24:58.915Z,6.80
2018-12-30T03:27:28.113Z,6.70
2018-12-30T03:29:56.977Z,6.70
2018-12-30T03:32:25.841Z,6.80
2018-12-30T03:34:54.841Z,6.90
2018-12-30T03:37:23.892Z,6.90
2018-12-30T03:39:52.755Z,7.00
2018-12-30T03:42:21.659Z,7.00
2018-12-30T03:44:50.517Z,7.10
2018-12-30T03:47:19.390Z,7.10
2018-12-30T03:49:48.903Z,7.10
2018-12-30T03:52:17.827Z,7.10
2018-12-30T03:54:46.685Z,7.20
2018-12-30T03:57:15.863Z,7.20
2018-12-30T03:59:44.721Z,7.30
2018-12-30T04:02:13.584Z,7.30
2018-12-30T04:04:42.907Z,7.30
2018-12-30T04:07:11.791Z,7.30
2018-12-30T04:09:40.651Z,7.40
2018-12-30T04:12:09.577Z,7.30
2018-12-30T04:14:38.888Z,7.30
2018-12-30T04:17:07.764Z,7.30
2018-12-30T04:19:36.661Z,7.30
2018-12-30T04:22:05.545Z,7.30
2018-12-30T04:24:34.416Z,7.30
2018-12-30T04:27:03.600Z,7.30
2018-12-30T04:29:32.689Z,7.30
2018-12-30T04:32:01.553Z,7.30
2018-12-30T04:34:30.453Z,7.30
2018-12-30T04:36:59.316Z,7.40
2018-12-30T04:39:28.181Z,7.50
2018-12-30T04:41:57.484Z,7.40
2018-12-30T04:44:26.536Z,7.40
2018-12-30T04:46:55.398Z,7.20
2018-12-30T04:49:24.306Z,7.40
2018-12-30T04:51:53.162Z,7.40
2018-12-30T04:54:22.112Z,7.40
2018-12-30T04:56:51.741Z,7.40
2018-12-30T04:59:20.600Z,7.50
2018-12-30T05:01:49.469Z,7.50
2018-12-30T05:04:18.682Z,7.50
2018-12-30T05:06:47.544Z,7.50
2018-12-30T05:09:16.400Z,7.50
2018-12-30T05:11:45.904Z,7.50
2018-12-30T05:14:14.839Z,7.60
2018-12-30T05:16:43.713Z,7.60
2018-12-30T05:19:12.664Z,7.60
2018-12-30T05:21:41.546Z,7.70
2018-12-30T05:24:10.712Z,7.60
2018-12-30T05:26:39.960Z,7.60
2018-12-30T05:29:08.821Z,7.80
2018-12-30T05:31:37.882Z,7.80
2018-12-30T05:34:06.779Z,7.70
2018-12-30T05:36:37.953Z,7.60
2018-12-30T05:39:07.572Z,7.60
2018-12-30T05:41:36.824Z,7.70
2018-12-30T05:44:05.688Z,7.60
2018-12-30T05:46:34.782Z,7.60
2018-12-30T05:49:03.810Z,7.60
2018-12-30T05:51:32.664Z,7.70
2018-12-30T05:54:01.520Z,7.60
2018-12-30T05:56:32.026Z,7.60
2018-12-30T05:59:00.934Z,7.60
2018-12-30T06:01:29.780Z,7.70
2018-12-30T06:03:59.136Z,7.70
2018-12-30T06:06:28.002Z,7.70
2018-12-30T06:08:56.872Z,7.70
2018-12-30T06:11:26.155Z,7.60
2018-12-30T06:13:55.053Z,7.70
2018-12-30T06:16:24.292Z,7.70
2018-12-30T06:18:53.252Z,7.80
2018-12-30T06:21:22.117Z,7.70
2018-12-30T06:23:50.992Z,7.70
2018-12-30T06:26:20.183Z,7.70
2018-12-30T06:28:49.045Z,7.70
2018-12-30T06:31:18.100Z,7.80
2018-12-30T06:33:47.110Z,7.80
2018-12-30T06:36:15.977Z,7.80
2018-12-30T06:38:44.971Z,7.80
2018-12-30T06:41:14.112Z,7.90
2018-12-30T06:43:43.216Z,7.80
2018-12-30T06:46:12.077Z,8.00
2018-12-30T06:48:40.988Z,7.90
2018-12-30T06:51:09.848Z,7.80
2018-12-30T06:53:38.717Z,7.80
2018-12-30T06:56:07.922Z,7.80
2018-12-30T06:58:36.967Z,7.70
2018-12-30T07:01:05.831Z,7.70
2018-12-30T07:03:34.732Z,7.70
2018-12-30T07:06:03.638Z,7.60
2018-12-30T07:08:32.475Z,7.60
2018-12-30T07:11:01.640Z,7.60
2018-12-30T07:13:30.728Z,7.60
2018-12-30T07:15:59.584Z,7.70
2018-12-30T07:18:28.571Z,7.70
2018-12-30T07:20:57.749Z,7.80
2018-12-30T07:23:26.616Z,7.70
2018-12-30T07:25:55.520Z,7.70
2018-12-30T07:28:24.772Z,7.70
2018-12-30T07:30:53.623Z,7.80
2018-12-30T07:33:23.210Z,7.80
2018-12-30T07:35:52.327Z,7.80
2018-12-30T07:38:21.256Z,7.90
2018-12-30T07:40:50.485Z,7.90
2018-12-30T07:43:19.366Z,7.90
2018-12-30T07:45:48.422Z,7.90
2018-12-30T07:48:17.323Z,7.80
2018-12-30T07:50:46.183Z,7.80
2018-12-30T07:53:15.437Z,7.80
2018-12-30T07:55:44.645Z,7.80
2018-12-30T07:58:13.505Z,7.90
2018-12-30T08:00:42.390Z,7.80
2018-12-30T08:03:11.758Z,7.90
2018-12-30T08:05:40.620Z,7.80
2018-12-30T08:08:09.787Z,7.80
2018-12-30T08:10:38.685Z,7.90
2018-12-30T08:13:07.544Z,7.90
2018-12-30T08:15:36.681Z,7.90
2018-12-30T08:18:05.888Z,7.90
2018-12-30T08:20:34.792Z,7.80
2018-12-30T08:23:03.920Z,7.90
2018-12-30T08:25:32.823Z,7.90
2018-12-30T08:28:01.691Z,7.90
2018-12-30T08:30:33.520Z,7.90
2018-12-30T08:33:02.789Z,8.00
2018-12-30T08:35:31.693Z,7.90
2018-12-30T08:38:00.563Z,7.80
2018-12-30T08:40:29.448Z,7.90
2018-12-30T08:42:58.334Z,7.80
2018-12-30T08:45:30.248Z,7.90
2018-12-30T08:47:59.436Z,7.80
2018-12-30T08:50:28.400Z,7.80
2018-12-30T08:52:57.488Z,7.80
2018-12-30T08:55:26.404Z,7.70
2018-12-30T08:57:55.292Z,7.70
2018-12-30T09:00:24.403Z,7.60
2018-12-30T09:02:54.904Z,7.70
2018-12-30T09:05:23.716Z,7.70
2018-12-30T09:07:52.609Z,7.70
2018-12-30T09:10:21.515Z,7.80
2018-12-30T09:12:50.791Z,7.80
2018-12-30T09:15:19.744Z,7.80
2018-12-30T09:17:48.917Z,7.70
2018-12-30T09:20:17.808Z,7.70
2018-12-30T09:22:46.690Z,7.80
2018-12-30T09:25:15.776Z,7.90
2018-12-30T09:27:45.006Z,7.90
2018-12-30T09:30:13.834Z,7.90
2018-12-30T09:32:42.992Z,8.00
2018-12-30T09:35:19.060Z,8.00
2018-12-30T09:37:48.009Z,8.00
2018-12-30T09:40:16.864Z,8.00
2018-12-30T09:42:45.848Z,8.10
2018-12-30T09:45:15.005Z,8.10
2018-12-30T09:47:44.065Z,8.10
2018-12-30T09:50:12.969Z,8.10
2018-12-30T09:52:42.134Z,8.10
2018-12-30T09:55:11.184Z,8.20
2018-12-30T09:57:40.049Z,8.20
2018-12-30T10:00:09.673Z,8.30
2018-12-30T10:02:38.773Z,8.40
2018-12-30T10:05:07.740Z,8.50
2018-12-30T10:07:37.102Z,8.50
2018-12-30T10:10:25.337Z,8.50
2018-12-30T10:12:54.940Z,8.60
2018-12-30T10:15:24.004Z,8.50
2018-12-30T10:17:52.884Z,8.50
2018-12-30T10:20:22.736Z,8.50
2018-12-30T10:22:58.667Z,8.50
2018-12-30T10:25:22.746Z,8.50
2018-12-30T10:27:51.935Z,8.60
2018-12-30T10:30:21.019Z,8.60
2018-12-30T10:32:50.644Z,8.70
2018-12-30T10:35:20.150Z,8.80
2018-12-30T10:37:49.039Z,8.80
2018-12-30T10:40:18.337Z,8.70
2018-12-30T10:42:47.686Z,8.90
2018-12-30T10:45:16.545Z,9.10
2018-12-30T10:47:45.620Z,9.10
2018-12-30T10:50:14.532Z,9.10
2018-12-30T10:52:43.388Z,9.10
2018-12-30T10:55:12.263Z,9.20
2018-12-30T10:57:41.461Z,9.10
2018-12-30T11:00:10.536Z,9.00
2018-12-30T11:02:39.478Z,9.00
2018-12-30T11:05:08.853Z,9.10
2018-12-30T11:07:38.070Z,9.00
2018-12-30T11:10:07.575Z,9.10
2018-12-30T11:12:37.221Z,9.00
2018-12-30T11:15:07.198Z,9.00
2018-12-30T11:17:36.328Z,9.00
2018-12-30T11:20:07.330Z,8.90
2018-12-30T11:22:36.438Z,8.90
2018-12-30T11:25:05.799Z,8.90
2018-12-30T11:27:35.398Z,8.90
2018-12-30T11:30:06.946Z,9.10
2018-12-30T11:32:36.718Z,9.10
2018-12-30T11:35:06.565Z,9.10
2018-12-30T11:37:35.505Z,9.20
2018-12-30T11:40:06.350Z,9.10
2018-12-30T11:42:36.142Z,9.20
2018-12-30T11:45:05.917Z,9.30
2018-12-30T11:47:34.776Z,9.40
2018-12-30T11:50:04.798Z,9.40
2018-12-30T11:52:33.672Z,9.30
2018-12-30T11:55:02.774Z,9.40
2018-12-30T11:57:32.151Z,9.40
2018-12-30T12:00:01.014Z,9.50
2018-12-30T12:02:30.082Z,9.60
2018-12-30T12:04:59.257Z,9.70
2018-12-30T12:07:28.133Z,9.70
2018-12-30T12:09:57.221Z,9.90
2018-12-30T12:12:26.384Z,9.90
2018-12-30T12:14:55.261Z,9.70
2018-12-30T12:17:24.295Z,9.70
2018-12-30T12:19:53.903Z,9.60
2018-12-30T12:22:23.207Z,9.40
2018-12-30T12:24:54.467Z,9.40
2018-12-30T12:27:23.786Z,9.40
2018-12-30T12:29:53.154Z,9.50
2018-12-30T12:32:22.062Z,9.50
2018-12-30T12:34:52.686Z,9.50
2018-12-30T12:37:21.565Z,9.60
2018-12-30T12:39:52.616Z,9.60
2018-12-30T12:42:22.403Z,9.60
2018-12-30T12:44:51.341Z,9.40
2018-12-30T12:47:20.515Z,9.20
2018-12-30T12:49:49.901Z,9.20
2018-12-30T12:52:19.007Z,9.20
2018-12-30T12:54:48.098Z,9.30
2018-12-30T12:57:17.489Z,9.30
2018-12-30T12:59:46.793Z,9.40
2018-12-30T13:02:15.656Z,9.30
2018-12-30T13:04:44.836Z,9.20
2018-12-30T13:07:13.708Z,9.20
2018-12-30T13:09:42.888Z,9.10
2018-12-30T13:12:12.067Z,9.20
2018-12-30T13:14:40.948Z,9.20
2018-12-30T13:17:10.169Z,9.10
2018-12-30T13:19:39.506Z,8.90
2018-12-30T13:22:11.163Z,8.90
2018-12-30T13:24:40.531Z,8.90
2018-12-30T13:27:09.406Z,8.90
2018-12-30T13:29:38.488Z,9.00
2018-12-30T13:32:07.787Z,9.10
2018-12-30T13:34:44.833Z,9.10
2018-12-30T13:37:13.754Z,9.10
2018-12-30T13:39:42.851Z,9.10
2018-12-30T13:42:12.004Z,9.20
2018-12-30T13:44:40.894Z,9.10
2018-12-30T13:47:09.830Z,9.10
2018-12-30T13:49:39.255Z,9.10
2018-12-30T13:52:08.324Z,9.10
2018-12-30T13:54:37.521Z,9.10
2018-12-30T13:57:06.498Z,9.30
2018-12-30T13:59:35.361Z,9.10
2018-12-30T14:02:08.871Z,9.00
2018-12-30T14:04:39.120Z,8.90
2018-12-30T14:07:08.322Z,8.90
2018-12-30T14:09:37.316Z,8.90
2018-12-30T14:12:06.545Z,8.90
2018-12-30T14:14:35.405Z,8.90
2018-12-30T14:17:04.269Z,8.80
2018-12-30T14:19:33.447Z,9.00
2018-12-30T14:22:02.401Z,9.00
2018-12-30T14:24:31.473Z,9.00
2018-12-30T14:27:01.227Z,8.90
2018-12-30T14:29:30.317Z,8.80
2018-12-30T14:31:59.271Z,8.70
2018-12-30T14:34:28.783Z,8.70
2018-12-30T14:36:57.668Z,8.70
2018-12-30T14:39:26.567Z,8.70
2018-12-30T14:41:56.062Z,8.60
2018-12-30T14:44:25.156Z,8.50
2018-12-30T14:46:54.452Z,8.50
2018-12-30T14:49:24.196Z,8.50
2018-12-30T14:51:53.233Z,8.50
2018-12-30T14:54:22.350Z,8.40
2018-12-30T14:56:51.937Z,8.40
2018-12-30T14:59:20.829Z,8.30
2018-12-30T15:01:49.807Z,8.30
2018-12-30T15:04:19.818Z,8.30
2018-12-30T15:06:48.708Z,8.30
2018-12-30T15:09:17.992Z,8.30
2018-12-30T15:11:46.976Z,8.20
2018-12-30T15:14:15.879Z,8.20
2018-12-30T15:16:45.267Z,8.10
2018-12-30T15:19:14.573Z,8.10
2018-12-30T15:21:43.684Z,8.10
2018-12-30T15:24:12.730Z,8.10
2018-12-30T15:26:41.951Z,8.00
2018-12-30T15:29:12.335Z,8.00
2018-12-30T15:31:48.519Z,7.90
2018-12-30T15:34:17.792Z,7.80
2018-12-30T15:36:46.706Z,7.80
2018-12-30T15:39:17.297Z,7.70
2018-12-30T15:41:49.513Z,7.70
2018-12-30T15:44:18.460Z,7.70
2018-12-30T15:46:47.480Z,7.60
2018-12-30T15:49:16.976Z,7.60
2018-12-30T15:51:55.084Z,7.50
2018-12-30T15:54:31.557Z,7.50
2018-12-30T15:57:04.126Z,7.50
2018-12-30T15:59:33.210Z,7.30
2018-12-30T16:02:03.693Z,7.40
2018-12-30T16:04:37.144Z,7.30
2018-12-30T16:07:12.146Z,7.40
2018-12-30T16:09:46.624Z,7.30
2018-12-30T16:12:15.933Z,7.20
2018-12-30T16:14:46.021Z,7.20
2018-12-30T16:17:16.667Z,7.10
2018-12-30T16:19:46.531Z,7.10
2018-12-30T16:22:15.687Z,7.10
2018-12-30T16:24:44.850Z,7.00
2018-12-30T16:27:14.112Z,7.10
2018-12-30T16:29:43.333Z,7.10
2018-12-30T16:32:12.540Z,7.10
2018-12-30T16:34:42.044Z,7.10
2018-12-30T16:37:13.323Z,7.00
2018-12-30T16:39:42.286Z,7.00
2018-12-30T16:42:11.407Z,6.90
2018-12-30T16:44:40.784Z,7.00
2018-12-30T16:47:09.876Z,7.00
2018-12-30T16:49:39.384Z,7.00
2018-12-30T16:52:08.678Z,7.00
2018-12-30T16:54:38.407Z,7.00
2018-12-30T16:57:09.086Z,7.10
2018-12-30T16:59:38.635Z,7.00
2018-12-30T17:02:07.513Z,7.00
2018-12-30T17:04:36.993Z,6.90
2018-12-30T17:07:05.919Z,6.90
2018-12-30T17:09:35.143Z,6.90
2018-12-30T17:12:04.608Z,6.90
2018-12-30T17:14:36.986Z,6.80
2018-12-30T17:17:06.597Z,6.80
2018-12-30T17:19:36.240Z,6.80
2018-12-30T17:22:05.261Z,6.70
2018-12-30T17:24:34.439Z,6.80
2018-12-30T17:27:03.786Z,6.80
2018-12-30T17:29:32.834Z,6.80
2018-12-30T17:32:02.277Z,6.80
2018-12-30T17:34:31.541Z,6.80
2018-12-30T17:37:00.858Z,6.90
2018-12-30T17:39:29.965Z,6.90
2018-12-30T17:41:59.140Z,6.90
2018-12-30T17:44:28.575Z,7.00
2018-12-30T17:46:57.671Z,7.00
2018-12-30T17:49:27.175Z,7.00
2018-12-30T17:51:56.474Z,7.10
2018-12-30T17:54:25.574Z,7.20
2018-12-30T17:56:55.080Z,7.10
2018-12-30T17:59:24.154Z,7.10
2018-12-30T18:01:53.032Z,7.20
2018-12-30T18:04:22.204Z,7.30
2018-12-30T18:06:51.246Z,7.30
2018-12-30T18:09:20.340Z,7.30
2018-12-30T18:11:50.051Z,7.30
2018-12-30T18:14:21.365Z,7.50
2018-12-30T18:16:50.493Z,7.40
2018-12-30T18:19:19.766Z,7.50
2018-12-30T18:21:48.795Z,7.50
2018-12-30T18:24:41.632Z,7.50
2018-12-30T18:27:10.644Z,7.50
2018-12-30T18:29:39.754Z,7.60
2018-12-30T18:32:08.922Z,7.60
2018-12-30T18:34:37.840Z,7.60
2018-12-30T18:37:06.927Z,7.60
2018-12-30T18:39:36.407Z,7.60
2018-12-30T18:42:05.510Z,7.60
2018-12-30T18:44:34.701Z,7.60
2018-12-30T18:47:03.743Z,7.60
2018-12-30T18:49:33.400Z,7.70
2018-12-30T18:52:02.559Z,7.80
2018-12-30T18:54:31.695Z,7.70
2018-12-30T18:57:00.901Z,7.70
2018-12-30T18:59:29.787Z,7.70
2018-12-30T19:01:59.131Z,7.70
2018-12-30T19:04:28.382Z,7.80
2018-12-30T19:06:57.362Z,7.80
2018-12-30T19:09:26.453Z,7.80
2018-12-30T19:11:56.933Z,7.80
2018-12-30T19:14:26.028Z,7.90
2018-12-30T19:16:55.273Z,7.90
2018-12-30T19:19:24.585Z,7.80
2018-12-30T19:21:53.465Z,7.80
2018-12-30T19:24:22.667Z,7.80
2018-12-30T19:26:51.734Z,7.80
2018-12-30T19:29:20.638Z,7.80
2018-12-30T19:31:49.861Z,7.80
2018-12-30T19:34:18.741Z,7.80
2018-12-30T19:36:47.597Z,7.70
2018-12-30T19:39:17.550Z,7.80
2018-12-30T19:41:46.448Z,7.80
2018-12-30T19:44:15.633Z,7.80
2018-12-30T19:46:45.345Z,7.70
2018-12-30T19:49:14.540Z,7.80
2018-12-30T19:51:43.662Z,7.80
2018-12-30T19:54:13.349Z,7.70
2018-12-30T19:56:42.232Z,7.70
2018-12-30T19:59:11.116Z,7.60
2018-12-30T20:01:40.936Z,7.60
2018-12-30T20:04:10.127Z,7.70
2018-12-30T20:06:39.221Z,7.60
2018-12-30T20:09:10.271Z,7.60
2018-12-30T20:11:39.161Z,7.70
2018-12-30T20:14:08.092Z,7.70
2018-12-30T20:16:37.274Z,7.60
2018-12-30T20:19:06.646Z,7.60
2018-12-30T20:21:36.049Z,7.50
2018-12-30T20:24:05.515Z,7.40
2018-12-30T20:26:34.751Z,7.30
2018-12-30T20:29:03.615Z,7.20
2018-12-30T20:31:32.986Z,7.20
2018-12-30T20:34:02.238Z,7.00
2018-12-30T20:36:31.243Z,7.00
2018-12-30T20:39:00.485Z,7.00
2018-12-30T20:41:29.512Z,7.00
2018-12-30T20:43:58.606Z,6.90
2018-12-30T20:46:28.869Z,6.80
2018-12-30T20:48:57.934Z,6.70
2018-12-30T20:51:27.063Z,6.60
2018-12-30T20:53:57.146Z,6.60
2018-12-30T20:56:28.843Z,6.50
2018-12-30T20:58:57.731Z,6.40
2018-12-30T21:01:27.188Z,6.30
2018-12-30T21:03:56.079Z,6.30
2018-12-30T21:06:24.959Z,6.30
2018-12-30T21:08:54.684Z,6.20
2018-12-30T21:11:23.574Z,6.20
2018-12-30T21:13:52.463Z,6.20
2018-12-30T21:16:22.383Z,6.20
2018-12-30T21:18:51.238Z,6.30
2018-12-30T21:21:20.363Z,6.30
2018-12-30T21:23:49.753Z,6.30
2018-12-30T21:26:18.609Z,6.30
2018-12-30T21:28:47.937Z,6.40
2018-12-30T21:31:17.153Z,6.40
2018-12-30T21:33:46.139Z,6.40
2018-12-30T21:36:15.237Z,6.40
2018-12-30T21:38:44.337Z,6.40
2018-12-30T21:41:13.629Z,6.40
2018-12-30T21:43:42.724Z,6.40
2018-12-30T21:46:12.231Z,6.50
2018-12-30T21:48:41.448Z,6.50
2018-12-30T21:51:10.401Z,6.50
2018-12-30T21:53:39.422Z,6.50
2018-12-30T21:56:09.018Z,6.50
2018-12-30T21:58:38.116Z,6.50
2018-12-30T22:01:07.620Z,6.50
2018-12-30T22:03:37.498Z,6.60
2018-12-30T22:06:06.704Z,6.60
2018-12-30T22:08:38.054Z,6.60
2018-12-30T22:11:07.473Z,6.60
2018-12-30T22:13:37.189Z,6.60
2018-12-30T22:16:06.281Z,6.50
2018-12-30T22:18:35.172Z,6.60
2018-12-30T22:21:04.471Z,6.50
2018-12-30T22:23:33.978Z,6.50
2018-12-30T22:26:03.074Z,6.50
2018-12-30T22:28:32.170Z,6.60
2018-12-30T22:31:01.346Z,6.60
2018-12-30T22:33:30.561Z,6.60
2018-12-30T22:35:59.408Z,6.60
2018-12-30T22:38:28.476Z,6.60
2018-12-30T22:40:57.640Z,6.60
2018-12-30T22:43:26.735Z,6.60
2018-12-30T22:45:56.129Z,6.60
2018-12-30T22:48:25.538Z,6.60
2018-12-30T22:50:54.727Z,6.60
2018-12-30T22:53:23.929Z,6.70
2018-12-30T22:55:53.454Z,6.70
2018-12-30T22:58:22.328Z,6.70
2018-12-30T23:00:59.614Z,6.70
2018-12-30T23:03:30.047Z,6.70
2018-12-30T23:05:59.067Z,6.60
2018-12-30T23:08:28.122Z,6.50
2018-12-30T23:10:58.458Z,6.50
2018-12-30T23:13:27.378Z,6.60
2018-12-30T23:15:56.910Z,6.50
2018-12-30T23:18:25.976Z,6.50
2018-12-30T23:20:54.937Z,6.40
2018-12-30T23:23:24.630Z,6.40
2018-12-30T23:25:53.610Z,6.40
2018-12-30T23:28:22.463Z,6.50
2018-12-30T23:31:00.130Z,6.50
2018-12-30T23:33:29.096Z,6.50
2018-12-30T23:35:58.096Z,6.50
2018-12-30T23:38:27.191Z,6.40
2018-12-30T23:40:56.289Z,6.40
2018-12-30T23:43:25.576Z,6.40
2018-12-30T23:45:54.746Z,6.50
2018-12-30T23:48:23.613Z,6.40
2018-12-30T23:50:52.686Z,6.40
2018-12-30T23:53:21.760Z,6.40
2018-12-30T23:55:51.150Z,6.30
2018-12-30T23:58:20.391Z,6.20
